Time;durP1;ratioP1;P1;durP2;ratioP2;P2;SDS_P1;SDS_P2;PMS_P1;PMS_P2;Temp;Humidity;BMP_temperature;BMP_pressure;BME280_temperature;BME280_humidity;BME280_pressure;Samples;Min_cycle;Max_cycle;Signal;HPM_P1;HPM_P2
2022/08/10 00:01:14;;;;;;;3.15;1.80;;;;;;;23.86;nan;101183.97;5076917;28;20063;-63
2022/08/10 00:03:40;;;;;;;3.63;1.75;;;;;;;23.84;nan;101183.34;5077217;28;20036;-63
2022/08/10 00:06:05;;;;;;;2.97;1.70;;;;;;;23.79;nan;101190.44;5077419;28;20311;-64
2022/08/10 00:08:30;;;;;;;5.28;1.70;;;;;;;23.75;nan;101184.69;5074183;28;20481;-63
2022/08/10 00:10:56;;;;;;;4.93;1.77;;;;;;;23.78;nan;101186.94;5082654;28;20040;-63
2022/08/10 00:13:23;;;;;;;4.03;1.70;;;;;;;23.80;nan;101176.75;5071027;28;20067;-63
2022/08/10 00:15:49;;;;;;;4.35;1.70;;;;;;;23.79;nan;101175.09;5074496;28;20036;-63
2022/08/10 00:18:15;;;;;;;3.55;1.52;;;;;;;23.76;nan;101167.44;5077655;28;20032;-63
2022/08/10 00:20:40;;;;;;;4.43;1.70;;;;;;;23.73;nan;101167.84;5078459;28;20079;-63
2022/08/10 00:23:05;;;;;;;4.03;1.60;;;;;;;23.72;nan;101174.31;5084241;28;20032;-63
2022/08/10 00:25:31;;;;;;;2.63;1.70;;;;;;;23.60;nan;101174.22;5078381;28;20043;-63
2022/08/10 00:27:56;;;;;;;3.38;1.52;;;;;;;23.52;nan;101169.91;5078463;28;20566;-63
2022/08/10 00:30:21;;;;;;;2.28;1.40;;;;;;;23.51;nan;101170.97;5072353;28;20036;-63
2022/08/10 00:32:46;;;;;;;2.50;1.50;;;;;;;23.53;nan;101173.44;5076005;28;20028;-63
2022/08/10 00:35:12;;;;;;;2.60;1.50;;;;;;;23.52;nan;101178.00;5079818;28;20454;-63
2022/08/10 00:37:37;;;;;;;3.47;1.50;;;;;;;23.49;nan;101177.63;5077111;28;20040;-63
2022/08/10 00:40:04;;;;;;;3.55;1.50;;;;;;;23.46;nan;101180.78;5079438;28;20048;-64
2022/08/10 00:42:30;;;;;;;3.33;1.50;;;;;;;23.41;nan;101181.44;5078526;28;20073;-63
2022/08/10 00:44:55;;;;;;;2.63;1.65;;;;;;;23.32;nan;101177.38;5074817;28;20052;-63
2022/08/10 00:47:20;;;;;;;3.92;1.60;;;;;;;23.30;nan;101177.56;5080823;28;20047;-63
2022/08/10 00:49:46;;;;;;;4.78;1.70;;;;;;;23.25;nan;101182.00;5075753;28;20453;-64
2022/08/10 00:52:13;;;;;;;2.97;1.80;;;;;;;23.21;nan;101180.78;5079201;28;20068;-64
2022/08/10 00:54:41;;;;;;;2.53;1.92;;;;;;;23.14;nan;101180.81;5084182;28;20109;-63
2022/08/10 00:57:06;;;;;;;3.00;1.60;;;;;;;23.02;nan;101182.56;5075733;28;20109;-63
2022/08/10 00:59:32;;;;;;;4.68;1.80;;;;;;;22.96;nan;101178.84;5063433;28;20074;-63
2022/08/10 01:01:58;;;;;;;2.60;1.60;;;;;;;22.90;nan;101172.44;5081894;28;20033;-63
2022/08/10 01:04:24;;;;;;;3.35;1.60;;;;;;;22.88;nan;101171.00;5079004;28;20032;-63
2022/08/10 01:06:58;;;;;;;3.35;1.92;;;;;;;22.84;nan;101177.91;5061702;28;20067;-63
2022/08/10 01:09:48;;;;;;;2.90;1.80;;;;;;;22.79;nan;101167.75;5075312;28;20117;-63
2022/08/10 01:12:31;;;;;;;5.55;2.90;;;;;;;22.75;nan;101171.09;5077626;28;20396;-63
2022/08/10 01:15:03;;;;;;;8.85;3.83;;;;;;;22.66;nan;101168.66;5080388;28;20045;-63
2022/08/10 01:17:53;;;;;;;2.63;1.90;;;;;;;22.71;nan;101165.31;5078228;28;20405;-63
2022/08/10 01:20:32;;;;;;;4.32;2.30;;;;;;;22.63;nan;101162.88;5065381;28;20496;-63
2022/08/10 01:23:16;;;;;;;6.38;2.67;;;;;;;22.57;nan;101164.59;5084516;28;20048;-63
2022/08/10 01:25:57;;;;;;;3.72;1.70;;;;;;;22.54;nan;101166.88;5078746;28;20036;-63
2022/08/10 01:28:25;;;;;;;;;;;;;;;22.47;nan;101172.28;5080790;28;20044;-63
2022/08/10 01:30:56;;;;;;;3.65;2.03;;;;;;;22.44;nan;101170.03;5081808;28;20441;-63
2022/08/10 01:33:26;;;;;;;4.05;1.92;;;;;;;22.43;nan;101163.81;5086266;28;20469;-63
2022/08/10 01:36:05;;;;;;;5.23;2.23;;;;;;;22.41;nan;101165.91;5079179;28;20044;-63
2022/08/10 01:38:33;;;;;;;10.82;4.50;;;;;;;;;;5083286;28;20432;-63
2022/08/10 01:41:12;;;;;;;14.63;5.20;;;;;;;22.35;nan;101164.03;5078170;28;20097;-64
2022/08/10 01:43:42;;;;;;;7.90;3.53;;;;;;;22.33;nan;101165.31;5056620;28;20039;-63
2022/08/10 01:46:10;;;;;;;5.32;2.25;;;;;;;22.34;nan;101165.09;5084827;28;20485;-64
2022/08/10 01:48:42;;;;;;;14.82;5.45;;;;;;;22.33;nan;101168.00;5075886;28;20581;-64
2022/08/10 01:51:23;;;;;;;9.15;3.53;;;;;;;22.32;nan;101166.34;5083321;28;20053;-64
2022/08/10 01:54:11;;;;;;;3.67;1.70;;;;;;;22.26;nan;101173.41;5084216;28;20051;-63
2022/08/10 01:56:41;;;;;;;2.95;1.70;;;;;;;22.29;nan;101166.78;5079185;28;20040;-64
2022/08/10 01:59:10;;;;;;;3.67;1.63;;;;;;;22.26;nan;101173.41;5084027;28;20143;-63
2022/08/10 02:02:00;;;;;;;4.32;1.80;;;;;;;22.22;nan;101172.19;5084425;28;20803;-63
2022/08/10 02:04:30;;;;;;;4.82;2.13;;;;;;;22.18;nan;101165.53;5081681;28;20496;-64
2022/08/10 02:06:57;;;;;;;9.98;3.42;;;;;;;22.13;nan;101174.25;5073958;28;20034;-63
2022/08/10 02:09:28;;;;;;;5.45;2.38;;;;;;;22.06;nan;101173.44;5073362;28;20041;-63
2022/08/10 02:11:58;;;;;;;3.03;1.67;;;;;;;22.06;nan;101173.44;5085155;28;20043;-63
2022/08/10 02:14:30;;;;;;;3.40;2.00;;;;;;;22.00;nan;101175.13;5078659;28;20809;-64
2022/08/10 02:16:58;;;;;;;5.78;1.90;;;;;;;21.93;nan;101178.88;5082085;28;20047;-64
2022/08/10 02:19:26;;;;;;;2.75;1.80;;;;;;;21.92;nan;101183.44;5079523;28;20037;-64
2022/08/10 02:21:53;;;;;;;2.05;1.50;;;;;;;21.90;nan;101176.59;5081486;28;20040;-63
2022/08/10 02:24:20;;;;;;;2.75;1.70;;;;;;;21.87;nan;101185.09;5082804;28;20507;-63
2022/08/10 02:26:47;;;;;;;2.95;1.80;;;;;;;21.89;nan;101186.56;5058163;28;20043;-63
2022/08/10 02:29:15;;;;;;;4.32;1.70;;;;;;;21.82;nan;101191.94;5084533;28;20056;-64
2022/08/10 02:31:42;;;;;;;2.92;1.67;;;;;;;21.79;nan;101195.06;5078088;28;21485;-64
2022/08/10 02:34:11;;;;;;;2.70;1.60;;;;;;;21.81;nan;101192.16;5080065;28;20458;-64
2022/08/10 02:36:43;;;;;;;3.58;1.60;;;;;;;21.73;nan;101187.00;5079019;28;20551;-63
2022/08/10 02:39:10;;;;;;;4.38;1.70;;;;;;;21.69;nan;101189.28;5079010;28;20039;-63
2022/08/10 02:41:46;;;;;;;3.03;1.63;;;;;;;21.71;nan;101186.38;5085360;28;20032;-63
2022/08/10 02:44:38;;;;;;;2.88;1.63;;;;;;;21.73;nan;101184.31;5078066;28;20389;-63
2022/08/10 02:47:14;;;;;;;3.28;1.70;;;;;;;21.73;nan;101181.59;5072268;28;20029;-63
2022/08/10 02:49:49;;;;;;;2.40;1.70;;;;;;;21.68;nan;101184.94;5068353;28;20036;-63
2022/08/10 02:52:23;;;;;;;2.42;1.58;;;;;;;21.60;nan;101185.97;5076270;28;20039;-63
2022/08/10 02:54:58;;;;;;;3.42;1.80;;;;;;;21.58;nan;101192.59;5063678;28;20060;-64
2022/08/10 02:57:28;;;;;;;2.63;1.63;;;;;;;21.55;nan;101184.97;5080907;28;20040;-63
2022/08/10 02:59:59;;;;;;;3.70;1.40;;;;;;;21.61;nan;101192.19;5074091;28;20520;-64
2022/08/10 03:02:29;;;;;;;5.43;1.83;;;;;;;21.53;nan;101178.94;5075427;28;20040;-64
2022/08/10 03:05:00;;;;;;;3.88;1.92;;;;;;;21.51;nan;101186.41;5075924;28;20048;-64
2022/08/10 03:07:31;;;;;;;2.53;1.70;;;;;;;21.53;nan;101189.72;5074290;28;20178;-63
2022/08/10 03:09:57;;;;;;;3.55;1.55;;;;;;;21.51;nan;101192.59;5075350;28;20040;-63
2022/08/10 03:12:24;;;;;;;4.03;1.73;;;;;;;21.56;nan;101184.72;5074861;28;20041;-63
2022/08/10 03:14:50;;;;;;;4.07;1.55;;;;;;;21.57;nan;101177.47;5072028;28;20040;-63
2022/08/10 03:17:16;;;;;;;2.28;1.50;;;;;;;21.51;nan;101181.84;5079519;28;20527;-63
2022/08/10 03:19:43;;;;;;;3.40;1.95;;;;;;;21.48;nan;101181.44;5077151;28;20084;-63
2022/08/10 03:22:09;;;;;;;2.55;1.60;;;;;;;21.51;nan;101187.22;5078399;28;20465;-64
2022/08/10 03:24:35;;;;;;;5.78;1.90;;;;;;;21.52;nan;101188.03;5079114;28;20070;-63
2022/08/10 03:27:03;;;;;;;4.28;2.00;;;;;;;21.53;nan;101193.22;5075559;28;20040;-64
2022/08/10 03:29:30;;;;;;;3.22;1.60;;;;;;;21.42;nan;101194.66;5071868;28;20047;-63
2022/08/10 03:31:57;;;;;;;2.42;1.50;;;;;;;21.41;nan;101198.41;5077688;28;20036;-64
2022/08/10 03:34:23;;;;;;;4.13;1.60;;;;;;;21.41;nan;101193.03;5081785;28;20041;-64
2022/08/10 03:36:48;;;;;;;4.18;1.80;;;;;;;21.39;nan;101194.22;5079998;28;20138;-63
2022/08/10 03:39:14;;;;;;;4.78;1.90;;;;;;;21.33;nan;101201.28;5082386;28;20554;-63
2022/08/10 03:41:47;;;;;;;3.10;1.70;;;;;;;21.27;nan;101195.88;5073733;28;20067;-63
2022/08/10 03:44:17;;;;;;;4.43;1.70;;;;;;;21.23;nan;101200.84;5075971;28;20220;-64
2022/08/10 03:46:45;;;;;;;2.53;1.65;;;;;;;21.17;nan;101201.69;5084458;28;20036;-63
2022/08/10 03:49:12;;;;;;;2.78;1.80;;;;;;;21.19;nan;101196.94;5080679;28;20050;-63
2022/08/10 03:51:38;;;;;;;4.53;1.67;;;;;;;21.14;nan;101197.53;5080018;28;20028;-64
2022/08/10 03:54:04;;;;;;;2.30;1.70;;;;;;;21.11;nan;101195.25;5081262;28;20123;-63
2022/08/10 03:56:30;;;;;;;2.80;1.67;;;;;;;21.06;nan;101205.78;5075687;28;20249;-63
2022/08/10 03:58:56;;;;;;;2.50;1.80;;;;;;;21.02;nan;101201.03;5082604;28;20571;-63
2022/08/10 04:01:22;;;;;;;4.25;1.80;;;;;;;21.01;nan;101208.25;5080206;28;20079;-63
2022/08/10 04:03:48;;;;;;;2.75;1.70;;;;;;;20.98;nan;101209.50;5083602;28;20062;-63
2022/08/10 04:06:13;;;;;;;4.53;1.95;;;;;;;20.96;nan;101216.94;5081210;28;20037;-63
2022/08/10 04:08:42;;;;;;;2.35;1.73;;;;;;;21.00;nan;101218.19;5080065;28;20453;-62
2022/08/10 04:11:09;;;;;;;2.78;1.80;;;;;;;20.93;nan;101221.91;5078577;28;20032;-62
2022/08/10 04:13:35;;;;;;;4.53;1.75;;;;;;;20.93;nan;101227.28;5080445;28;20109;-63
2022/08/10 04:16:00;;;;;;;4.90;1.70;;;;;;;20.93;nan;101216.53;5076366;28;20387;-63
2022/08/10 04:18:25;;;;;;;4.18;1.63;;;;;;;20.89;nan;101224.16;5071990;28;20109;-63
2022/08/10 04:21:14;;;;;;;5.50;1.90;;;;;;;20.89;nan;101223.34;5077492;28;20093;-63
2022/08/10 04:23:43;;;;;;;3.10;1.63;;;;;;;20.89;nan;101224.16;5078236;28;20032;-63
2022/08/10 04:26:10;;;;;;;4.47;1.98;;;;;;;20.85;nan;101222.91;5080342;28;20045;-64
2022/08/10 04:28:36;;;;;;;4.45;1.80;;;;;;;20.85;nan;101224.75;5078263;28;20046;-63
2022/08/10 04:31:05;;;;;;;3.38;1.70;;;;;;;20.87;nan;101225.41;5079943;28;20044;-63
2022/08/10 04:33:32;;;;;;;3.83;1.77;;;;;;;20.85;nan;101244.41;5079012;28;20585;-64
2022/08/10 04:35:59;;;;;;;2.88;1.80;;;;;;;20.77;nan;101229.28;5088383;28;20078;-63
2022/08/10 04:38:26;;;;;;;2.80;2.03;;;;;;;20.84;nan;101228.50;5080681;28;20691;-63
2022/08/10 04:40:52;;;;;;;2.97;1.83;;;;;;;20.82;nan;101230.56;5077973;28;20405;-63
2022/08/10 04:43:17;;;;;;;3.85;1.73;;;;;;;20.78;nan;101235.50;5085443;28;20066;-63
2022/08/10 04:45:43;;;;;;;2.15;1.70;;;;;;;20.76;nan;101226.78;5086276;28;20512;-63
2022/08/10 04:48:09;;;;;;;3.53;1.90;;;;;;;20.82;nan;101231.38;5077640;28;20408;-64
2022/08/10 04:50:34;;;;;;;4.15;1.80;;;;;;;20.76;nan;101224.97;5080048;28;20062;-63
2022/08/10 04:52:59;;;;;;;2.92;1.70;;;;;;;20.76;nan;101221.41;5104253;28;20043;-63
2022/08/10 04:55:24;;;;;;;2.88;1.60;;;;;;;20.74;nan;101218.94;5078294;28;20364;-63
2022/08/10 04:57:50;;;;;;;8.68;2.45;;;;;;;20.77;nan;101228.47;5085538;28;20107;-63
2022/08/10 05:00:15;;;;;;;3.08;1.92;;;;;;;20.82;nan;101227.88;5077346;28;20086;-63
2022/08/10 05:02:41;;;;;;;4.18;1.98;;;;;;;20.82;nan;101222.50;5084263;28;20048;-63
2022/08/10 05:05:07;;;;;;;3.13;1.88;;;;;;;20.79;nan;101224.56;5074083;28;20108;-63
2022/08/10 05:07:32;;;;;;;3.33;1.80;;;;;;;20.81;nan;101229.72;5080640;28;20136;-63
2022/08/10 05:09:57;;;;;;;4.18;1.80;;;;;;;20.85;nan;101232.84;5078664;28;20042;-63
2022/08/10 05:12:23;;;;;;;4.40;2.00;;;;;;;20.87;nan;101230.78;5083995;28;20049;-63
2022/08/10 05:14:50;;;;;;;3.42;1.80;;;;;;;20.93;nan;101235.34;5076543;28;20403;-63
2022/08/10 05:17:16;;;;;;;4.40;1.92;;;;;;;21.01;nan;101237.84;5078327;28;20044;-63
2022/08/10 05:19:41;;;;;;;3.53;1.90;;;;;;;21.11;nan;101245.50;5080337;28;20040;-63
2022/08/10 05:22:07;;;;;;;6.72;2.00;;;;;;;21.21;nan;101251.31;5080731;28;20036;-64
2022/08/10 05:24:32;;;;;;;2.47;1.70;;;;;;;21.32;nan;101239.97;5082912;28;20127;-63
2022/08/10 05:26:58;;;;;;;2.38;1.65;;;;;;;21.49;nan;101248.50;5083489;28;20048;-63
2022/08/10 05:29:23;;;;;;;2.85;1.80;;;;;;;21.66;nan;101248.91;5084198;28;20027;-63
2022/08/10 05:31:48;;;;;;;3.20;1.65;;;;;;;21.82;nan;101251.16;5097840;28;20045;-63
2022/08/10 05:34:15;;;;;;;3.10;1.60;;;;;;;21.97;nan;101252.81;5082910;28;20056;-64
2022/08/10 05:36:41;;;;;;;3.65;1.70;;;;;;;22.16;nan;101251.13;5074451;28;20039;-63
2022/08/10 05:39:08;;;;;;;4.63;1.90;;;;;;;22.27;nan;101245.94;5080268;28;20090;-63
2022/08/10 05:41:34;;;;;;;5.78;1.80;;;;;;;22.40;nan;101257.72;5070112;28;20055;-64
2022/08/10 05:44:00;;;;;;;3.63;1.90;;;;;;;22.52;nan;101245.22;5087457;28;20544;-63
2022/08/10 05:46:25;;;;;;;3.25;1.88;;;;;;;22.69;nan;101242.88;5085143;28;20140;-63
2022/08/10 05:48:51;;;;;;;3.63;2.00;;;;;;;22.85;nan;101245.09;5062632;28;20115;-64
2022/08/10 05:51:17;;;;;;;2.45;1.60;;;;;;;23.01;nan;101254.59;5082616;28;20287;-64
2022/08/10 05:53:43;;;;;;;3.42;1.65;;;;;;;23.20;nan;101254.69;5078487;28;20036;-64
2022/08/10 05:56:09;;;;;;;3.10;1.67;;;;;;;23.35;nan;101259.75;5077358;28;20036;-64
2022/08/10 05:58:35;;;;;;;5.47;1.75;;;;;;;23.50;nan;101265.66;5089051;28;20038;-64
2022/08/10 06:01:04;;;;;;;3.78;1.90;;;;;;;23.67;nan;101261.38;5079238;28;20381;-64
2022/08/10 06:03:35;;;;;;;5.03;1.80;;;;;;;23.86;nan;101256.88;5078957;28;20045;-63
2022/08/10 06:06:03;;;;;;;5.55;2.35;;;;;;;24.03;nan;101253.63;5085882;28;20081;-64
2022/08/10 06:08:32;;;;;;;10.10;4.20;;;;;;;24.24;nan;101260.44;5083028;28;20424;-64
2022/08/10 06:11:02;;;;;;;3.85;1.90;;;;;;;24.37;nan;101263.00;5086055;28;20413;-64
2022/08/10 06:16:15;;;;;;;4.32;1.60;;;;;;;24.61;nan;101260.47;5084926;28;20090;-63
2022/08/10 06:18:42;;;;;;;4.38;1.65;;;;;;;24.80;nan;101259.38;5069304;28;20036;-64
2022/08/10 06:21:08;;;;;;;3.25;1.50;;;;;;;24.89;nan;101259.91;5079029;28;20035;-64
2022/08/10 06:23:35;;;;;;;2.53;1.52;;;;;;;25.06;nan;101270.91;5089678;28;20501;-64
2022/08/10 06:26:01;;;;;;;4.30;1.75;;;;;;;25.24;nan;101264.63;5080641;28;20047;-64
2022/08/10 06:28:29;;;;;;;2.40;1.60;;;;;;;25.45;nan;101272.22;5068431;28;20048;-64
2022/08/10 06:30:58;;;;;;;5.97;2.03;;;;;;;25.63;nan;101272.13;5076991;28;20473;-64
2022/08/10 06:33:25;;;;;;;2.38;1.50;;;;;;;25.67;nan;101269.78;5071162;28;20028;-63
2022/08/10 06:35:53;;;;;;;2.47;1.60;;;;;;;26.06;nan;101272.88;5071730;28;20044;-64
2022/08/10 06:38:22;;;;;;;9.00;5.15;;;;;;;26.25;nan;101277.09;5068730;28;20421;-64
2022/08/10 06:40:51;;;;;;;10.60;5.10;;;;;;;26.47;nan;101274.56;5084563;28;20059;-64
2022/08/10 06:43:20;;;;;;;9.95;4.32;;;;;;;26.68;nan;101273.13;5088236;28;20094;-64
2022/08/10 06:45:59;;;;;;;5.70;2.65;;;;;;;27.02;nan;101273.25;5087876;28;20051;-64
2022/08/10 06:48:28;;;;;;;7.28;3.80;;;;;;;27.17;nan;101275.41;5088405;28;20506;-64
2022/08/10 06:51:03;;;;;;;7.35;3.92;;;;;;;27.56;nan;101275.56;5087937;28;20040;-64
2022/08/10 06:53:36;;;;;;;5.35;2.72;;;;;;;27.90;nan;101278.28;5089551;28;20443;-65
2022/08/10 06:56:07;;;;;;;2.75;1.60;;;;;;;28.02;nan;101268.13;5071811;28;20421;-64
2022/08/10 06:58:35;;;;;;;3.35;1.30;;;;;;;28.15;nan;101273.22;5068470;28;20033;-64
2022/08/10 07:01:04;;;;;;;3.53;1.30;;;;;;;28.45;nan;101276.59;5084235;28;20044;-65
2022/08/10 07:03:36;;;;;;;3.33;1.60;;;;;;;28.41;nan;101275.44;5087266;28;20704;-64
2022/08/10 07:06:03;;;;;;;2.22;1.35;;;;;;;28.39;nan;101270.28;5081444;28;20281;-64
2022/08/10 07:08:32;;;;;;;1.95;1.20;;;;;;;28.74;nan;101277.25;5088653;28;20480;-65
2022/08/10 07:10:59;;;;;;;3.08;1.40;;;;;;;28.88;nan;101281.19;5081428;28;20119;-64
2022/08/10 07:13:27;;;;;;;1.90;1.27;;;;;;;29.19;nan;101285.09;5068859;28;20364;-65
2022/08/10 07:15:54;;;;;;;1.85;1.20;;;;;;;29.39;nan;101276.28;5068730;28;20036;-65
2022/08/10 07:18:20;;;;;;;2.25;1.20;;;;;;;29.61;nan;101281.66;5085113;28;20115;-64
2022/08/10 07:20:47;;;;;;;4.28;1.48;;;;;;;29.96;nan;101282.16;5088289;28;20054;-64
2022/08/10 07:23:13;;;;;;;3.13;1.30;;;;;;;30.23;nan;101279.34;5072232;28;20068;-65
2022/08/10 07:25:41;;;;;;;4.53;1.60;;;;;;;30.23;nan;101273.88;5068222;28;20060;-65
2022/08/10 07:28:08;;;;;;;1.90;1.15;;;;;;;30.49;nan;101274.84;5081959;28;20135;-65
2022/08/10 07:30:38;;;;;;;2.15;1.20;;;;;;;30.84;nan;101278.78;5088374;28;20223;-65
2022/08/10 07:33:05;;;;;;;2.28;1.35;;;;;;;31.10;nan;101283.22;5056348;28;20044;-65
2022/08/10 07:35:32;;;;;;;2.22;1.30;;;;;;;31.28;nan;101290.06;5067663;28;20047;-65
2022/08/10 07:38:01;;;;;;;1.73;1.10;;;;;;;31.78;nan;101279.44;5079681;28;20492;-65
2022/08/10 07:40:28;;;;;;;3.33;1.55;;;;;;;31.98;nan;101278.59;5087445;28;20043;-65
2022/08/10 07:42:57;;;;;;;3.45;1.20;;;;;;;32.05;nan;101272.84;5087413;28;20058;-65
2022/08/10 07:45:27;;;;;;;4.80;1.20;;;;;;;32.26;nan;101285.34;5088342;28;20024;-65
2022/08/10 07:48:03;;;;;;;4.43;1.30;;;;;;;31.95;nan;101279.97;5087152;28;20264;-65
2022/08/10 07:50:29;;;;;;;1.73;1.00;;;;;;;31.85;nan;101276.41;5067952;28;20032;-65
2022/08/10 07:53:00;;;;;;;1.83;1.02;;;;;;;31.80;nan;101284.59;5082299;28;20036;-65
2022/08/10 07:55:26;;;;;;;2.13;1.13;;;;;;;31.72;nan;101284.06;5061893;28;20036;-64
2022/08/10 07:57:54;;;;;;;2.67;1.13;;;;;;;31.51;nan;101279.72;5098729;28;20036;-65
2022/08/10 08:00:20;;;;;;;2.28;1.45;;;;;;;31.32;nan;101295.81;5097668;28;20564;-65
2022/08/10 08:02:55;;;;;;;2.28;1.13;;;;;;;31.71;nan;101282.44;5080045;28;20132;-65
2022/08/10 08:05:24;;;;;;;1.63;0.98;;;;;;;31.82;nan;101282.41;5090611;28;20114;-65
2022/08/10 08:07:51;;;;;;;1.67;1.00;;;;;;;31.73;nan;101285.72;5089304;28;20535;-65
2022/08/10 08:10:18;;;;;;;1.55;0.90;;;;;;;31.81;nan;101275.31;5091423;28;20554;-65
2022/08/10 08:12:45;;;;;;;1.70;1.10;;;;;;;31.83;nan;101276.69;5090578;28;20389;-65
2022/08/10 08:15:14;;;;;;;2.13;1.17;;;;;;;31.95;nan;101277.22;5090575;28;20046;-65
2022/08/10 08:17:41;;;;;;;3.33;1.08;;;;;;;32.15;nan;101268.16;5074700;28;20032;-65
2022/08/10 08:20:08;;;;;;;3.47;1.05;;;;;;;32.19;nan;101281.28;5091540;28;20123;-64
2022/08/10 08:22:35;;;;;;;1.98;1.10;;;;;;;32.26;nan;101282.63;5081761;28;20042;-65
2022/08/10 08:25:02;;;;;;;1.83;1.13;;;;;;;32.49;nan;101272.94;5053893;28;20047;-65
2022/08/10 08:27:28;;;;;;;2.63;1.20;;;;;;;32.77;nan;101273.38;5071739;28;20404;-64
2022/08/10 08:29:54;;;;;;;2.38;1.10;;;;;;;32.70;nan;101276.41;5082090;28;20035;-65
2022/08/10 08:32:22;;;;;;;2.08;1.10;;;;;;;33.06;nan;101283.63;5096345;28;20479;-65
2022/08/10 08:34:53;;;;;;;2.78;1.10;;;;;;;32.88;nan;101276.88;5083657;28;20068;-65
2022/08/10 08:37:21;;;;;;;1.77;1.10;;;;;;;33.39;nan;101276.50;5072971;28;20032;-65
2022/08/10 08:39:47;;;;;;;2.05;1.20;;;;;;;33.97;nan;101284.78;5098657;28;20032;-65
2022/08/10 08:42:31;;;;;;;1.90;1.00;;;;;;;33.99;nan;101270.75;5090909;28;20051;-66
2022/08/10 08:45:04;;;;;;;2.45;1.15;;;;;;;34.19;nan;101272.47;5079440;28;20038;-66
2022/08/10 08:47:58;;;;;;;3.08;1.30;;;;;;;34.46;nan;101267.19;5103391;28;20070;-65
2022/08/10 08:50:43;;;;;;;2.47;1.15;;;;;;;35.15;nan;101261.28;5080981;28;20035;-65
2022/08/10 08:53:27;;;;;;;2.95;1.33;;;;;;;35.56;nan;101265.28;5092139;28;20027;-65
2022/08/10 08:56:01;;;;;;;1.42;1.15;;;;;;;35.76;nan;101269.63;5104245;28;20142;-65
2022/08/10 08:59:04;;;;;;;3.63;1.45;;;;;;;35.97;nan;101257.13;5113715;28;20039;-65
2022/08/10 09:01:46;;;;;;;3.08;1.30;;;;;;;36.00;nan;101261.19;5088424;28;20085;-65
2022/08/10 09:04:30;;;;;;;2.60;1.15;;;;;;;35.92;nan;101258.03;5092920;28;20048;-66
2022/08/10 09:07:17;;;;;;;4.28;1.33;;;;;;;36.19;nan;101253.66;5076506;28;20089;-65
2022/08/10 09:10:19;;;;;;;2.70;1.27;;;;;;;35.88;nan;101250.69;5092822;28;20035;-65
2022/08/10 09:13:05;;;;;;;2.35;1.20;;;;;;;35.94;nan;101260.47;5093257;28;20048;-64
2022/08/10 09:15:45;;;;;;;1.98;1.00;;;;;;;36.23;nan;101264.88;5070219;28;20047;-64
2022/08/10 09:18:22;;;;;;;2.72;1.20;;;;;;;36.31;nan;101253.13;5089302;28;20365;-65
2022/08/10 09:21:00;;;;;;;3.45;1.40;;;;;;;36.22;nan;101264.06;5099183;28;20035;-64
2022/08/10 09:23:48;;;;;;;2.20;0.85;;;;;;;35.89;nan;101253.13;5107036;28;20027;-64
2022/08/10 09:26:18;;;;;;;3.08;1.10;;;;;;;35.66;nan;101249.44;5068411;28;20401;-65
2022/08/10 09:28:44;;;;;;;4.53;1.40;;;;;;;36.43;nan;101249.84;5068875;28;20042;-64
2022/08/10 09:31:11;;;;;;;2.47;1.30;;;;;;;36.83;nan;101256.41;5065298;28;20443;-64
2022/08/10 09:33:48;;;;;;;3.72;1.25;;;;;;;37.02;nan;101261.75;5095298;28;20122;-64
2022/08/10 09:36:16;;;;;;;3.53;1.30;;;;;;;37.10;nan;101257.44;5067890;28;20063;-64
2022/08/10 09:38:41;;;;;;;1.35;1.00;;;;;;;37.09;nan;101237.34;5068622;28;20032;-64
2022/08/10 09:41:25;;;;;;;2.30;1.10;;;;;;;37.34;nan;101252.41;5068194;28;20071;-64
2022/08/10 09:44:08;;;;;;;1.08;0.93;;;;;;;37.65;nan;101251.63;5096253;28;20446;-65
2022/08/10 09:47:07;;;;;;;3.15;1.30;;;;;;;37.67;nan;101257.66;5093124;28;20198;-65
2022/08/10 09:50:10;;;;;;;1.70;1.30;;;;;;;37.40;nan;101253.91;5084535;28;20044;-65
2022/08/10 09:53:03;;;;;;;3.10;1.23;;;;;;;37.18;nan;101251.97;5086649;28;20492;-64
2022/08/10 09:55:47;;;;;;;2.95;1.20;;;;;;;37.02;nan;101260.91;5037150;28;1059025;-64
2022/08/10 09:58:24;;;;;;;2.90;1.33;;;;;;;36.53;nan;101244.91;5075604;28;20390;-64
2022/08/10 10:01:19;;;;;;;3.22;1.20;;;;;;;34.90;nan;101246.00;5090167;28;20043;-64
2022/08/10 10:03:54;;;;;;;2.85;1.30;;;;;;;35.55;nan;101231.47;5048728;28;20218;-64
2022/08/10 10:06:36;;;;;;;2.38;1.30;;;;;;;36.23;nan;101234.56;5073831;28;20374;-64
2022/08/10 10:09:33;;;;;;;2.15;1.10;;;;;;;36.64;nan;101244.72;5077782;28;20039;-64
2022/08/10 10:11:58;;;;;;;2.05;1.27;;;;;;;36.56;nan;101233.28;5034329;28;20123;-65
2022/08/10 10:15:18;;;;;;;1.83;1.20;;;;;;;37.11;nan;101224.03;5080266;28;20591;-64
2022/08/10 10:17:36;;;;;;;2.05;1.10;;;;;;;37.37;nan;101229.69;5074524;28;20032;-64
2022/08/10 10:20:38;;;;;;;2.05;1.17;;;;;;;37.74;nan;101227.66;5071907;28;20519;-65
2022/08/10 10:23:17;;;;;;;2.20;1.20;;;;;;;37.31;nan;101228.22;5076234;28;20047;-65
2022/08/10 10:26:10;;;;;;;2.90;1.10;;;;;;;36.79;nan;101216.81;5088149;28;20036;-64
2022/08/10 10:29:00;;;;;;;1.50;1.10;;;;;;;37.96;nan;101209.38;5087287;28;20537;-65
2022/08/10 10:31:34;;;;;;;1.93;1.00;;;;;;;38.78;nan;101202.19;5083284;28;20037;-65
2022/08/10 10:34:14;;;;;;;2.00;1.20;;;;;;;38.92;nan;101215.03;5071405;28;20060;-65
2022/08/10 10:36:42;;;;;;;5.03;1.20;;;;;;;38.36;nan;101212.06;5077515;28;20111;-65
2022/08/10 10:39:12;;;;;;;2.05;1.13;;;;;;;38.35;nan;101213.19;5070191;28;20299;-65
2022/08/10 10:41:51;;;;;;;2.08;1.08;;;;;;;38.66;nan;101202.84;5088781;28;20243;-65
2022/08/10 10:44:48;;;;;;;2.22;1.33;;;;;;;38.51;nan;101210.81;5089036;28;20032;-65
2022/08/10 10:47:26;;;;;;;4.25;1.30;;;;;;;38.21;nan;101214.16;5068705;28;20040;-65
2022/08/10 10:50:29;;;;;;;2.03;1.08;;;;;;;38.65;nan;101203.97;5069013;28;20040;-65
2022/08/10 10:53:11;;;;;;;4.45;1.45;;;;;;;39.12;nan;101205.22;5068227;28;20071;-65
2022/08/10 10:55:43;;;;;;;1.25;0.90;;;;;;;39.22;nan;101210.44;5050318;28;20060;-65
2022/08/10 10:58:43;;;;;;;2.38;1.30;;;;;;;39.01;nan;101200.06;5075173;28;20115;-66
2022/08/10 11:01:36;;;;;;;2.10;1.40;;;;;;;38.46;nan;101206.25;5089440;28;20036;-65
2022/08/10 11:04:19;;;;;;;1.63;1.10;;;;;;;38.56;nan;101185.75;5088784;28;20054;-66
2022/08/10 11:07:26;;;;;;;2.03;1.50;;;;;;;38.55;nan;101184.16;5088985;28;20177;-65
2022/08/10 11:09:57;;;;;;;2.53;1.05;;;;;;;38.66;nan;101202.84;5025789;28;20057;-65
2022/08/10 11:12:56;;;;;;;2.67;1.35;;;;;;;38.95;nan;101182.03;5017816;28;20054;-65
2022/08/10 11:15:35;;;;;;;2.50;1.10;;;;;;;38.65;nan;101190.16;5068061;28;20040;-64
2022/08/10 11:18:10;;;;;;;3.00;1.20;;;;;;;38.56;nan;101180.25;5072338;28;20090;-64
2022/08/10 11:20:59;;;;;;;1.98;1.20;;;;;;;39.78;nan;101177.16;5079975;28;20516;-65
2022/08/10 11:23:35;;;;;;;2.33;1.00;;;;;;;40.55;nan;101169.50;5068535;28;20051;-66
2022/08/10 11:26:12;;;;;;;3.55;1.33;;;;;;;40.85;nan;101167.41;5068733;28;20069;-65
2022/08/10 11:28:44;;;;;;;2.35;1.30;;;;;;;40.75;nan;101168.66;5068075;28;20032;-66
2022/08/10 11:31:20;;;;;;;3.20;1.10;;;;;;;41.13;nan;101169.59;5068622;28;20040;-65
2022/08/10 11:33:45;;;;;;;3.28;1.10;;;;;;;41.29;nan;101169.75;5067901;28;20090;-66
2022/08/10 11:36:30;;;;;;;1.93;1.10;;;;;;;41.34;nan;101173.09;5067351;28;20468;-65
2022/08/10 11:39:07;;;;;;;1.48;1.05;;;;;;;41.26;nan;101162.09;5068078;28;20033;-66
2022/08/10 11:41:54;;;;;;;3.08;1.10;;;;;;;42.03;nan;101166.97;5050212;28;20032;-66
2022/08/10 11:44:31;;;;;;;1.80;0.95;;;;;;;41.88;nan;101174.03;5083374;28;20046;-66
2022/08/10 11:47:05;;;;;;;1.95;1.20;;;;;;;41.60;nan;101158.09;5088327;28;20040;-66
2022/08/10 11:49:38;;;;;;;2.28;1.27;;;;;;;41.21;nan;101162.31;5087985;28;20035;-65
2022/08/10 11:52:12;;;;;;;2.10;1.08;;;;;;;41.07;nan;101148.75;5087797;28;20059;-66
2022/08/10 11:54:45;;;;;;;1.80;1.10;;;;;;;40.84;nan;101153.91;5087905;28;20465;-65
2022/08/10 11:57:12;;;;;;;2.13;1.00;;;;;;;41.52;nan;101154.22;5088431;28;20044;-65
2022/08/10 11:59:57;;;;;;;1.73;1.20;;;;;;;41.26;nan;101151.00;5088008;28;20086;-65
2022/08/10 12:02:39;;;;;;;2.55;1.17;;;;;;;41.71;nan;101152.88;5087549;28;20069;-65
2022/08/10 12:05:14;;;;;;;3.47;1.20;;;;;;;42.15;nan;101150.28;5088181;28;20036;-65
2022/08/10 12:07:44;;;;;;;4.20;1.10;;;;;;;42.14;nan;101143.09;5088719;28;20492;-65